This is the latest recevied weather packets stored in our database for station/object PU5BHV. If no packets are shown the sender has not sent any weather packets the latest 10 day(s).
| Time | Temp. | Humidity | Pressure | Rain* | Wind** | Luminosity | Snow |
|---|---|---|---|---|---|---|---|
| 1777728029 | 20.56° C | 99% | 1017.1 hPa | 1.27 mm | - | 30 W/m² | - |
| 1777727726 | 20.56° C | 99% | 1017.4 hPa | 0 mm | - | 27 W/m² | - |
| 1777727422 | 20.56° C | 99% | 1017.7 hPa | 0 mm | - | 29 W/m² | - |
| 1777727120 | 20.56° C | 99% | 1017.9 hPa | 0 mm | - | 35 W/m² | - |
| 1777726818 | 20.56° C | 99% | 1017.5 hPa | 0 mm | - | 33 W/m² | - |
| 1777726514 | 20.56° C | 99% | 1017.5 hPa | 0 mm | - | 30 W/m² | - |
| 1777726211 | 20.56° C | 99% | 1017.2 hPa | 1.78 mm | - | 32 W/m² | - |
| 1777725908 | 20.56° C | 99% | 1017.3 hPa | 1.78 mm | - | 32 W/m² | - |
| 1777725605 | 20.56° C | 99% | 1017.6 hPa | 0 mm | - | 33 W/m² | - |
| 1777725303 | 20.56° C | 99% | 1017.5 hPa | 0 mm | - | 34 W/m² | - |
| 1777724999 | 21.11° C | 99% | 1017.4 hPa | 0 mm | - | 52 W/m² | - |
| 1777724695 | 20.56° C | 99% | 1017.2 hPa | 0 mm | - | 75 W/m² | - |
| 1777724394 | 20.56° C | 99% | 1017.3 hPa | 0 mm | - | 72 W/m² | - |
| 1777724091 | 20.56° C | 99% | 1017.4 hPa | 1.27 mm | - | 41 W/m² | - |
| 1777723788 | 20.56° C | 99% | 1017.7 hPa | 1.27 mm | - | 38 W/m² | - |
| 1777723484 | 20.56° C | 99% | 1017.8 hPa | 0 mm | - | 32 W/m² | - |
| 1777723182 | 20.56° C | 99% | 1017.8 hPa | 0 mm | - | 32 W/m² | - |
| 1777722879 | 20.56° C | 99% | 1017.6 hPa | 0 mm | - | 40 W/m² | - |
| 1777722575 | 20.56° C | 99% | 1017 hPa | 0 mm | - | 86 W/m² | - |
| 1777722272 | 20.56° C | 99% | 1017.1 hPa | 0 mm | - | 82 W/m² | - |
| 1777721969 | 20.56° C | 99% | 1017.1 hPa | 0 mm | - | 88 W/m² | - |
| 1777721666 | 20.56° C | 99% | 1017.5 hPa | 0 mm | - | 74 W/m² | - |
| 1777721365 | 20° C | 99% | 1017.9 hPa | 0 mm | - | 70 W/m² | - |
| 1777721062 | 20° C | 99% | 1017.8 hPa | 1.78 mm | - | 65 W/m² | - |
| 1777720760 | 20° C | 99% | 1017.9 hPa | 1.78 mm | - | 46 W/m² | - |
* Rain latest hour (hover to see other rain measurements)
** Current wind speed in m/s (hover to see current wind gust speed)